Weather History for Bad Axe, MI

Change the Weather History Date:

Monday, August 26, 2013

  Actual Average (KP58) Record (KP58)
Temperature  
Mean Temperature 77 °F -  
Max Temperature 82 °F 72 °F 87 °F (2012)
Min Temperature 72 °F 58 °F 55 °F (2010)
Cooling Degree Days 12    
Growing Degree Days 27 (Base 50)    
Moisture  
Dew Point 67 °F    
Average Humidity 72    
Maximum Humidity 84    
Minimum Humidity 63    
Precipitation  
Precipitation 0.00 in - - ()
Sea Level Pressure  
Sea Level Pressure 30.03 in    
Wind  
Wind Speed 11 mph (WSW)    
Max Wind Speed 17 mph    
Max Gust Speed 26 mph    
Visibility 10 miles    
Events Rain    
Averages and records for this station are not official NWS values.
T = Trace of Precipitation, MM = Missing Value Source: NWS Daily Summary

Daily Weather History Graph

Daily Weather History Graph

Search for Another Location

Airport:

Trip Planner

Search our weather history database for the weather conditions in past years. The results will help you decide how hot, cold, wet, or windy it might be!

Date:

Astronomy

Aug. 26, 2013 Rise Set
Actual Time 6:48 AM EDT 8:17 PM EDT
Civil Twilight 6:18 AM EDT 8:47 PM EDT
Nautical Twilight 5:42 AM EDT 9:23 PM EDT
Astronomical Twilight 5:03 AM EDT 10:02 PM EDT
Moon 11:13 PM EDT (8/26) 1:02 PM EDT (8/26)
Length of Visible Light 14h 28m
Length of Day
13h 28m
Waning Gibbous, 67% of the Moon is Illuminated
Aug 26
Waning Gibbous
Aug 28
Last Quarter
Sep 5
New
Sep 12
First Quarter
Sep 19
Full

Hourly Weather History & Observations

Time (EDT) Temp. Heat Index Dew Point Humidity Pressure Visibility Wind Dir Wind Speed Gust Speed Precip Events Conditions
12:12 AM 75.7 °F - 65.8 °F 71% 30.11 in 10.0 mi SW 10.4 mph - N/A   Clear
12:32 AM 75.6 °F - 65.8 °F 72% 30.10 in 10.0 mi SW 10.4 mph 17.3 mph N/A   Clear
12:53 AM 75.4 °F - 65.8 °F 72% 30.09 in 10.0 mi SW 12.7 mph 17.3 mph N/A   Clear
1:12 AM 75.6 °F - 65.7 °F 71% 30.08 in 10.0 mi SW 11.5 mph 21.9 mph N/A   Clear
1:33 AM 76.5 °F - 65.3 °F 68% 30.08 in 10.0 mi WSW 13.8 mph 21.9 mph N/A   Clear
1:53 AM 77.2 °F - 64.2 °F 64% 30.08 in 10.0 mi WSW 15.0 mph 23.0 mph N/A   Clear
2:12 AM 77.0 °F - 64.0 °F 64% 30.07 in 10.0 mi WSW 17.3 mph 23.0 mph N/A   Clear
2:33 AM 76.5 °F - 63.9 °F 65% 30.07 in 10.0 mi WSW 15.0 mph 24.2 mph N/A   Clear
2:53 AM 76.1 °F - 63.9 °F 66% 30.06 in 10.0 mi WSW 17.3 mph 25.3 mph N/A   Clear
3:12 AM 75.9 °F - 63.7 °F 66% 30.05 in 10.0 mi WSW 16.1 mph 26.5 mph N/A   Clear
3:33 AM 75.4 °F - 63.9 °F 67% 30.06 in 10.0 mi WSW 11.5 mph 20.7 mph N/A   Clear
3:53 AM 74.7 °F - 63.9 °F 69% 30.07 in 10.0 mi WSW 11.5 mph 18.4 mph N/A   Clear
4:12 AM 74.7 °F - 64.0 °F 69% 30.07 in 10.0 mi WSW 11.5 mph 23.0 mph N/A   Clear
4:33 AM 74.1 °F - 64.0 °F 71% 30.06 in 10.0 mi WSW 16.1 mph 20.7 mph N/A   Clear
4:53 AM 73.8 °F - 64.0 °F 72% 30.06 in 10.0 mi WSW 13.8 mph 21.9 mph N/A   Clear
5:12 AM 73.6 °F - 64.0 °F 72% 30.06 in 10.0 mi WSW 11.5 mph 21.9 mph N/A   Clear
5:33 AM 73.0 °F - 63.9 °F 73% 30.07 in 10.0 mi WSW 13.8 mph 17.3 mph N/A   Clear
5:53 AM 72.7 °F - 63.9 °F 74% 30.07 in 10.0 mi WSW 11.5 mph 18.4 mph N/A   Clear
6:12 AM 72.5 °F - 63.9 °F 74% 30.07 in 10.0 mi WSW 10.4 mph - N/A   Clear
6:33 AM 72.1 °F - 63.9 °F 75% 30.07 in 10.0 mi WSW 11.5 mph 17.3 mph N/A   Clear
6:52 AM 72.1 °F - 63.7 °F 75% 30.08 in 10.0 mi WSW 10.4 mph - N/A   Clear
7:13 AM 72.0 °F - 63.9 °F 76% 30.08 in 10.0 mi WSW 10.4 mph 17.3 mph N/A   Clear
7:33 AM 72.1 °F - 64.0 °F 76% 30.07 in 10.0 mi WSW 11.5 mph 16.1 mph N/A   Clear
7:52 AM 72.7 °F - 64.4 °F 75% 30.07 in 10.0 mi WSW 10.4 mph 17.3 mph N/A   Clear
8:13 AM 73.4 °F - 64.6 °F 74% 30.06 in 10.0 mi WSW 12.7 mph 19.6 mph N/A   Clear
8:33 AM 73.6 °F - 64.8 °F 74% 30.05 in 10.0 mi WSW 13.8 mph 19.6 mph N/A   Mostly Cloudy
8:53 AM 73.4 °F - 64.9 °F 75% 30.05 in 10.0 mi WSW 13.8 mph 18.4 mph N/A   Scattered Clouds
9:13 AM 73.8 °F - 65.3 °F 75% 30.06 in 10.0 mi WSW 13.8 mph 18.4 mph N/A   Clear
9:33 AM 75.0 °F - 65.8 °F 73% 30.08 in 10.0 mi West 15.0 mph 19.6 mph N/A   Clear
9:53 AM 76.5 °F - 66.2 °F 70% 30.08 in 10.0 mi West 13.8 mph 20.7 mph N/A   Clear
10:13 AM 76.1 °F - 66.2 °F 71% 30.09 in 10.0 mi West 12.7 mph 17.3 mph N/A   Scattered Clouds
10:33 AM 77.0 °F - 66.4 °F 70% 30.09 in 10.0 mi West 12.7 mph - N/A   Mostly Cloudy
10:53 AM 77.0 °F - 67.1 °F 71% 30.08 in 10.0 mi WNW 10.4 mph - N/A   Scattered Clouds
11:13 AM 77.2 °F - 67.3 °F 71% 30.08 in 10.0 mi West 9.2 mph - N/A   Scattered Clouds
11:33 AM 75.9 °F - 67.8 °F 76% 30.04 in 1.8 mi SSW 6.9 mph - N/A Rain Light Rain
11:53 AM 76.1 °F - 68.5 °F 77% 30.05 in 10.0 mi WSW 6.9 mph - N/A Rain Light Rain
12:13 PM 77.2 °F - 68.7 °F 75% 30.04 in 10.0 mi WSW 3.5 mph - N/A   Scattered Clouds
12:33 PM 77.0 °F - 68.9 °F 76% 30.04 in 10.0 mi WSW 8.1 mph - N/A   Clear
12:53 PM 76.6 °F - 68.5 °F 76% 30.04 in 10.0 mi WSW 9.2 mph - N/A   Scattered Clouds
1:13 PM 76.3 °F - 68.5 °F 77% 30.03 in 10.0 mi WSW 6.9 mph - N/A Rain Light Rain
1:33 PM 77.5 °F - 68.9 °F 75% 30.04 in 10.0 mi WSW 8.1 mph - N/A   Scattered Clouds
1:53 PM 78.4 °F - 68.2 °F 71% 30.03 in 10.0 mi WSW 10.4 mph 18.4 mph N/A   Scattered Clouds
2:13 PM 79.0 °F - 68.4 °F 70% 30.03 in 10.0 mi West 8.1 mph - N/A   Scattered Clouds
2:33 PM 80.4 °F 83.5 °F 69.4 °F 69% 30.01 in 10.0 mi West 12.7 mph 18.4 mph N/A   Scattered Clouds
2:53 PM 81.9 °F 85.4 °F 69.4 °F 66% 30.01 in 10.0 mi WSW 12.7 mph - N/A   Scattered Clouds
3:12 PM 82.4 °F 86.1 °F 69.4 °F 65% 30.01 in 10.0 mi West 13.8 mph - N/A   Scattered Clouds
3:33 PM 81.7 °F 85.1 °F 69.3 °F 66% 30.00 in 10.0 mi West 11.5 mph 18.4 mph N/A   Clear
3:53 PM 82.4 °F 86.1 °F 69.6 °F 65% 29.99 in 10.0 mi WSW 10.4 mph 20.7 mph N/A   Clear
4:12 PM 82.6 °F 86.4 °F 69.8 °F 65% 29.98 in 10.0 mi West 15.0 mph 19.6 mph N/A   Clear
4:33 PM 82.4 °F 85.8 °F 69.3 °F 64% 29.97 in 10.0 mi WSW 15.0 mph - N/A   Clear
4:53 PM 82.8 °F 86.4 °F 69.4 °F 64% 29.96 in 10.0 mi WSW 15.0 mph 19.6 mph N/A   Clear
5:13 PM 82.9 °F 86.5 °F 69.3 °F 63% 29.95 in 10.0 mi WSW 13.8 mph 20.7 mph N/A   Clear
5:33 PM 82.8 °F 86.7 °F 70.0 °F 65% 29.96 in 10.0 mi West 15.0 mph 19.6 mph N/A   Clear
5:53 PM 81.7 °F 85.2 °F 69.6 °F 67% 29.96 in 10.0 mi WSW 15.0 mph 20.7 mph N/A   Clear
6:13 PM 81.9 °F 85.4 °F 69.6 °F 66% 29.97 in 10.0 mi WSW 16.1 mph - N/A   Clear
6:33 PM 81.7 °F 85.4 °F 70.0 °F 68% 29.96 in 10.0 mi West 9.2 mph 16.1 mph N/A   Clear
6:53 PM 81.5 °F 84.9 °F 69.6 °F 67% 29.96 in 10.0 mi West 11.5 mph 23.0 mph N/A   Clear
7:13 PM 81.0 °F 84.6 °F 70.2 °F 70% 29.96 in 10.0 mi West 9.2 mph - N/A   Clear
7:33 PM 80.2 °F 83.6 °F 70.3 °F 72% 29.96 in 10.0 mi West 8.1 mph - N/A   Clear
7:53 PM 79.2 °F - 70.7 °F 75% 29.96 in 10.0 mi WSW 5.8 mph - N/A   Clear
8:13 PM 78.3 °F - 70.7 °F 77% 29.97 in 10.0 mi WSW 5.8 mph - N/A   Clear
8:33 PM 77.2 °F - 70.7 °F 80% 29.97 in 10.0 mi WSW 4.6 mph - N/A   Clear
8:53 PM 76.3 °F - 70.7 °F 83% 29.97 in 10.0 mi WSW 4.6 mph - N/A   Clear
9:13 PM 75.9 °F - 70.7 °F 84% 29.97 in 10.0 mi WSW 3.5 mph - N/A   Clear
9:33 PM 76.3 °F - 70.7 °F 83% 29.97 in 10.0 mi SW 4.6 mph - N/A   Clear
9:53 PM 76.1 °F - 70.5 °F 83% 29.97 in 10.0 mi SW 5.8 mph - N/A   Clear
10:13 PM 75.6 °F - 70.0 °F 83% 29.97 in 10.0 mi WSW 5.8 mph - N/A   Clear
10:33 PM 75.2 °F - 69.8 °F 83% 29.97 in 10.0 mi WSW 5.8 mph - N/A   Clear
10:53 PM 75.4 °F - 69.4 °F 82% 29.98 in 10.0 mi WSW 8.1 mph - N/A   Clear
11:13 PM 75.2 °F - 69.3 °F 82% 29.97 in 10.0 mi West 6.9 mph - N/A   Clear
11:33 PM 74.5 °F - 68.9 °F 83% 29.97 in 10.0 mi West 6.9 mph - N/A   Clear
11:53 PM 74.3 °F - 68.9 °F 83% 29.97 in 10.0 mi West 8.1 mph - N/A   Clear